Time;durP1;ratioP1;P1;durP2;ratioP2;P2;SDS_P1;SDS_P2;PMS_P1;PMS_P2;Temp;Humidity;BMP_temperature;BMP_pressure;BME280_temperature;BME280_humidity;BME280_pressure;Samples;Min_cycle;Max_cycle;Signal;HPM_P1;HPM_P2
2024/04/22 00:00:12;;;;;;;8.05;3.70;;;;;;;6.74;51.26;100725.09;5216193;27;94632;-79
2024/04/22 00:02:38;;;;;;;10.05;3.78;;;;;;;6.69;50.67;100728.66;5222462;27;93445;-78
2024/04/22 00:05:04;;;;;;;7.40;3.25;;;;;;;6.70;50.43;100733.00;5234271;26;97358;-79
2024/04/22 00:07:29;;;;;;;7.15;3.55;;;;;;;6.45;50.14;100701.09;5233275;27;94544;-79
2024/04/22 00:09:55;;;;;;;4.82;2.78;;;;;;;6.30;50.21;100689.97;5206676;27;94595;-80
2024/04/22 00:12:20;;;;;;;5.43;3.22;;;;;;;6.54;49.88;100727.09;5173265;27;97700;-79
2024/04/22 00:14:46;;;;;;;5.05;2.55;;;;;;;6.56;49.61;100739.22;5229959;27;94625;-79
2024/04/22 00:17:11;;;;;;;7.63;3.20;;;;;;;6.49;49.97;100724.53;5233574;26;94919;-79
2024/04/22 00:19:37;;;;;;;4.53;2.65;;;;;;;6.57;49.60;100729.66;5216674;27;94519;-79
2024/04/22 00:22:02;;;;;;;7.93;3.35;;;;;;;6.47;49.07;100718.47;5229395;27;93375;-79
2024/04/22 00:24:28;;;;;;;9.40;3.42;;;;;;;6.38;49.46;100713.34;5214380;27;94536;-79
2024/04/22 00:26:53;;;;;;;6.82;3.17;;;;;;;6.15;49.74;100690.13;5225032;27;95026;-79
2024/04/22 00:29:19;;;;;;;6.95;3.80;;;;;;;6.16;49.62;100678.81;5199928;27;95212;-79
2024/04/22 00:31:44;;;;;;;4.72;2.78;;;;;;;6.42;49.74;100708.97;5217121;27;94513;-79
2024/04/22 00:34:10;;;;;;;7.28;2.88;;;;;;;6.43;49.83;100715.91;5202608;27;96995;-80
2024/04/22 00:36:35;;;;;;;6.15;2.50;;;;;;;6.46;49.78;100719.38;5205584;27;94399;-79
2024/04/22 00:39:01;;;;;;;7.07;3.55;;;;;;;6.49;49.90;100723.69;5234157;26;94647;-79
2024/04/22 00:41:27;;;;;;;8.75;3.67;;;;;;;6.34;50.23;100707.31;5233213;26;96992;-79
2024/04/22 00:43:53;;;;;;;8.55;4.45;;;;;;;6.47;50.13;100718.47;5205806;27;97194;-79
2024/04/22 00:46:19;;;;;;;7.07;3.65;;;;;;;6.29;50.71;100696.06;5235699;26;94716;-79
2024/04/22 00:48:44;;;;;;;7.53;3.50;;;;;;;6.55;50.44;100731.44;5205234;27;94500;-79
2024/04/22 00:51:11;;;;;;;6.70;3.47;;;;;;;6.49;50.53;100723.69;5199248;27;96896;-79
2024/04/22 00:53:37;;;;;;;5.05;3.58;;;;;;;6.33;50.77;100705.56;5233548;27;94610;-79
2024/04/22 00:56:03;;;;;;;5.15;3.10;;;;;;;6.46;50.53;100728.94;5234324;27;94504;-79
2024/04/22 00:58:29;;;;;;;11.45;3.83;;;;;;;6.13;50.41;100681.44;5227810;26;94572;-79
2024/04/22 01:00:56;;;;;;;5.05;2.70;;;;;;;6.00;50.55;100683.31;5235589;27;94489;-80
2024/04/22 01:03:22;;;;;;;6.70;3.13;;;;;;;6.39;50.17;100735.94;5228628;27;94630;-79
2024/04/22 01:05:48;;;;;;;5.10;2.90;;;;;;;6.31;50.06;100728.22;5233858;27;94851;-79
2024/04/22 01:08:14;;;;;;;6.32;3.10;;;;;;;6.35;50.26;100732.50;5225535;26;94649;-79
2024/04/22 01:10:40;;;;;;;5.22;3.00;;;;;;;6.36;50.30;100733.34;5155046;27;97123;-79
2024/04/22 01:13:05;;;;;;;8.60;3.95;;;;;;;6.08;50.18;100688.47;5198906;27;97407;-79
2024/04/22 01:15:31;;;;;;;7.25;4.10;;;;;;;6.30;50.19;100723.00;5200318;27;94608;-79
2024/04/22 01:17:56;;;;;;;6.35;3.75;;;;;;;6.39;50.02;100745.50;5216829;27;94648;-79
2024/04/22 01:20:22;;;;;;;8.20;3.58;;;;;;;6.23;50.15;100724.81;5235430;26;94622;-79
2024/04/22 01:22:48;;;;;;;5.50;3.42;;;;;;;6.10;50.16;100697.13;5198431;27;94599;-79
2024/04/22 01:25:15;;;;;;;8.70;3.60;;;;;;;6.20;50.54;100714.41;5177419;27;94510;-79
2024/04/22 01:27:41;;;;;;;8.38;3.67;;;;;;;6.31;50.40;100737.75;5233119;27;94510;-79
2024/04/22 01:30:07;;;;;;;4.80;3.15;;;;;;;6.32;50.30;100736.91;5232950;27;97620;-79
2024/04/22 01:32:32;;;;;;;4.95;3.05;;;;;;;6.29;49.89;100729.09;5202173;27;97617;-79
2024/04/22 01:35:00;;;;;;;5.55;3.35;;;;;;;6.12;49.13;100714.47;5219062;27;95097;-79
2024/04/22 01:37:29;;;;;;;6.07;3.10;;;;;;;6.24;48.43;100736.09;5195739;27;94534;-79
2024/04/22 01:39:55;;;;;;;6.70;3.65;;;;;;;6.19;48.47;100719.63;5228611;26;94644;-80
2024/04/22 01:42:21;;;;;;;6.03;2.47;;;;;;;6.02;48.80;100706.75;5204542;27;97665;-79
2024/04/22 01:44:47;;;;;;;4.75;2.90;;;;;;;6.24;48.27;100736.09;5205563;27;94588;-79
2024/04/22 01:47:12;;;;;;;5.05;2.67;;;;;;;5.98;48.21;100677.25;5233674;27;95072;-78
2024/04/22 01:49:38;;;;;;;6.80;2.83;;;;;;;5.94;47.83;100691.19;5234705;27;94444;-78
2024/04/22 01:52:04;;;;;;;4.97;3.08;;;;;;;5.85;48.08;100686.91;5159312;27;97944;-79
2024/04/22 01:54:29;;;;;;;6.03;2.70;;;;;;;6.11;47.51;100731.00;5194299;27;94718;-79
2024/04/22 01:56:55;;;;;;;6.30;3.38;;;;;;;6.15;47.77;100731.84;5234328;27;94556;-80
2024/04/22 01:59:22;;;;;;;4.80;2.60;;;;;;;6.09;48.26;100729.28;5232377;27;97147;-79
2024/04/22 02:01:48;;;;;;;6.22;2.75;;;;;;;6.16;48.36;100732.69;5193989;27;97491;-79
2024/04/22 02:04:13;;;;;;;6.35;2.88;;;;;;;6.01;48.31;100718.91;5203916;27;95086;-79
2024/04/22 02:06:39;;;;;;;4.78;2.55;;;;;;;5.72;48.44;100690.47;5177318;27;93533;-79
2024/04/22 02:09:04;;;;;;;4.30;2.65;;;;;;;5.84;48.39;100698.19;5204678;27;97216;-79
2024/04/22 02:11:30;;;;;;;7.68;3.35;;;;;;;5.79;48.20;100714.72;5229718;27;95364;-79
2024/04/22 02:13:55;;;;;;;6.75;3.05;;;;;;;5.88;48.19;100735.53;5234447;27;94538;-80
2024/04/22 02:16:21;;;;;;;6.67;2.77;;;;;;;5.58;47.94;100726.19;5233080;27;94571;-79
2024/04/22 02:18:47;;;;;;;6.82;3.17;;;;;;;5.78;48.18;100742.53;5227473;27;94444;-79
2024/04/22 02:21:12;;;;;;;6.65;2.33;;;;;;;5.48;47.45;100688.06;5202737;27;97328;-79
2024/04/22 02:23:37;;;;;;;6.13;3.23;;;;;;;5.47;47.51;100700.25;5189163;27;94865;-79
2024/04/22 02:26:03;;;;;;;10.68;3.13;;;;;;;5.65;47.52;100738.31;5223418;27;94494;-79
2024/04/22 02:28:29;;;;;;;4.00;2.28;;;;;;;5.64;47.25;100731.34;5203638;27;97842;-79
2024/04/22 02:30:55;;;;;;;6.18;2.45;;;;;;;5.47;47.69;100691.53;5232483;26;94420;-79
2024/04/22 02:33:21;;;;;;;5.37;2.47;;;;;;;5.75;47.26;100733.88;5204224;27;94534;-79
2024/04/22 02:35:47;;;;;;;4.63;2.70;;;;;;;5.75;47.58;100737.34;5199478;27;94533;-78
2024/04/22 02:38:13;;;;;;;6.20;2.72;;;;;;;5.38;47.29;100680.34;5231014;27;94504;-79
2024/04/22 02:40:40;;;;;;;5.03;2.87;;;;;;;5.57;47.31;100735.75;5232202;27;94657;-79
2024/04/22 02:43:05;;;;;;;4.78;2.22;;;;;;;5.54;47.56;100732.31;5221766;27;94566;-80
2024/04/22 02:45:30;;;;;;;3.33;2.53;;;;;;;5.68;47.66;100733.06;5221648;27;94569;-80
2024/04/22 02:47:56;;;;;;;9.25;2.83;;;;;;;5.62;47.46;100712.28;5202445;27;97060;-79
2024/04/22 02:50:21;;;;;;;9.85;3.30;;;;;;;5.64;47.34;100727.03;5194612;27;97222;-79
2024/04/22 02:52:47;;;;;;;7.10;2.97;;;;;;;5.76;47.50;100731.28;5205286;27;94531;-79
2024/04/22 02:55:12;;;;;;;5.47;3.22;;;;;;;5.68;46.95;100726.13;5235190;26;94580;-79
2024/04/22 02:57:38;;;;;;;4.68;2.92;;;;;;;5.56;47.26;100733.16;5234194;27;94609;-79
2024/04/22 03:00:04;;;;;;;3.85;2.30;;;;;;;5.36;46.73;100728.94;5234730;26;94586;-79
2024/04/22 03:02:30;;;;;;;8.70;2.90;;;;;;;5.43;47.05;100729.75;5234833;27;94808;-78
2024/04/22 03:04:56;;;;;;;8.35;3.20;;;;;;;5.36;47.05;100734.16;5206955;26;94630;-78
2024/04/22 03:07:21;;;;;;;7.25;3.40;;;;;;;4.98;46.69;100685.78;5195260;27;97363;-79
2024/04/22 03:09:47;;;;;;;5.45;2.50;;;;;;;5.08;46.66;100681.38;5199490;27;96882;-79
2024/04/22 03:12:13;;;;;;;8.43;2.83;;;;;;;5.21;46.51;100693.47;5214847;27;94609;-79
2024/04/22 03:14:39;;;;;;;4.65;2.53;;;;;;;5.50;46.39;100736.66;5174241;27;94475;-79
2024/04/22 03:17:05;;;;;;;4.35;2.33;;;;;;;5.29;47.19;100676.91;5233705;27;94502;-79
2024/04/22 03:19:30;;;;;;;8.05;2.75;;;;;;;5.35;47.28;100692.47;5206532;27;95246;-78
2024/04/22 03:21:56;;;;;;;4.93;2.38;;;;;;;5.36;47.07;100694.22;5204539;27;94970;-79
2024/04/22 03:24:22;;;;;;;5.63;2.50;;;;;;;5.45;47.05;100720.22;5232489;27;94553;-79
2024/04/22 03:26:48;;;;;;;4.25;2.80;;;;;;;5.22;47.35;100679.56;5200532;27;95116;-79
2024/04/22 03:29:14;;;;;;;5.07;2.72;;;;;;;5.26;47.08;100683.00;5211103;27;98052;-79
2024/04/22 03:31:39;;;;;;;4.47;2.15;;;;;;;5.49;46.83;100721.91;5233569;26;95095;-80
2024/04/22 03:34:05;;;;;;;3.40;2.20;;;;;;;5.41;46.88;100708.94;5232132;26;94578;-79
2024/04/22 03:36:30;;;;;;;4.60;2.15;;;;;;;5.18;46.66;100685.66;5212033;27;94462;-79
2024/04/22 03:38:56;;;;;;;6.88;2.10;;;;;;;5.37;46.97;100722.84;5203367;27;94600;-79
2024/04/22 03:41:22;;;;;;;4.10;2.17;;;;;;;5.37;46.41;100722.00;5236524;26;94476;-79
2024/04/22 03:43:47;;;;;;;5.40;2.47;;;;;;;5.12;46.39;100695.22;5206535;27;94498;-79
2024/04/22 03:51:41;;;;;;;4.38;2.67;;;;;;;4.94;47.29;100696.19;5233748;26;94582;-82
2024/04/22 03:54:07;;;;;;;6.57;2.63;;;;;;;5.04;47.53;100721.31;5192512;26;94508;-79
2024/04/22 03:56:32;;;;;;;6.40;3.23;;;;;;;5.00;47.84;100716.97;5220939;27;97672;-79
2024/04/22 03:58:58;;;;;;;8.67;3.47;;;;;;;4.96;48.19;100720.47;5206042;27;94485;-79
2024/04/22 04:01:23;;;;;;;9.20;3.77;;;;;;;4.89;48.20;100706.66;5206049;27;94383;-80
2024/04/22 04:03:49;;;;;;;7.27;3.20;;;;;;;4.87;48.69;100708.38;5222054;27;94509;-80
2024/04/22 04:06:14;;;;;;;7.32;3.15;;;;;;;4.93;48.69;100713.56;5182292;26;97788;-79
2024/04/22 04:08:40;;;;;;;7.50;3.70;;;;;;;4.69;48.90;100683.31;5204987;27;97757;-79
2024/04/22 04:11:11;;;;;;;9.60;4.25;;;;;;;4.90;49.24;100723.13;5220967;26;94647;-80
2024/04/22 04:13:39;;;;;;;14.25;3.75;;;;;;;4.87;49.13;100707.53;5207418;27;94562;-80
2024/04/22 04:16:05;;;;;;;21.80;4.37;;;;;;;4.91;49.24;100707.47;5223180;26;93392;-80
2024/04/22 04:18:30;;;;;;;15.57;4.68;;;;;;;5.01;49.17;100721.34;5222839;27;97806;-79
2024/04/22 04:20:56;;;;;;;10.90;4.00;;;;;;;4.90;49.28;100707.50;5193849;27;96130;-81
2024/04/22 04:23:21;;;;;;;9.23;4.37;;;;;;;5.09;49.58;100726.47;5229002;26;94502;-80
2024/04/22 04:25:47;;;;;;;6.57;3.93;;;;;;;4.96;49.59;100679.72;5205398;27;94516;-80
2024/04/22 04:28:12;;;;;;;8.80;4.53;;;;;;;4.95;49.38;100678.00;5201218;27;97763;-80
2024/04/22 04:30:38;;;;;;;15.77;5.18;;;;;;;5.26;49.24;100695.16;5200236;26;94820;-81
2024/04/22 04:33:03;;;;;;;12.45;4.80;;;;;;;5.57;49.20;100719.25;5189976;27;94646;-80
2024/04/22 04:35:29;;;;;;;12.70;4.90;;;;;;;5.77;48.82;100735.59;5196169;26;97467;-79
2024/04/22 04:37:54;;;;;;;15.32;5.43;;;;;;;5.61;49.05;100693.19;5203149;26;97287;-80
2024/04/22 04:40:20;;;;;;;12.27;4.32;;;;;;;5.80;49.01;100693.88;5224444;27;94547;-79
2024/04/22 04:42:45;;;;;;;12.15;5.80;;;;;;;6.03;48.60;100716.31;5217965;27;94650;-81
2024/04/22 04:45:11;;;;;;;11.05;4.78;;;;;;;6.31;48.38;100740.34;5229552;27;94589;-79
2024/04/22 04:47:36;;;;;;;14.13;4.43;;;;;;;6.39;48.44;100727.25;5209925;27;94589;-80
2024/04/22 04:50:03;;;;;;;18.60;5.38;;;;;;;6.26;48.28;100688.28;5176161;27;94437;-80
2024/04/22 04:52:28;;;;;;;16.95;5.43;;;;;;;6.46;48.42;100700.25;5205396;27;94404;-80
2024/04/22 04:54:54;;;;;;;16.17;6.05;;;;;;;6.83;47.75;100738.94;5234270;27;96348;-79
2024/04/22 04:57:19;;;;;;;16.90;5.57;;;;;;;7.09;48.28;100751.66;5200189;27;97470;-79
2024/04/22 04:59:45;;;;;;;13.55;5.57;;;;;;;7.16;47.70;100733.28;5199157;27;95197;-79
2024/04/22 05:02:10;;;;;;;8.57;5.38;;;;;;;7.54;47.35;100723.19;5205892;27;94561;-80
2024/04/22 05:04:36;;;;;;;13.70;5.70;;;;;;;8.44;45.90;100728.69;5230778;27;94768;-76
2024/04/22 05:07:01;;;;;;;10.20;5.28;;;;;;;9.52;43.36;100726.38;5224224;27;94671;-76
2024/04/22 05:09:27;;;;;;;13.65;5.68;;;;;;;10.74;41.30;100723.31;5229268;26;94973;-78
2024/04/22 05:11:53;;;;;;;17.13;6.78;;;;;;;12.18;38.69;100730.19;5204009;27;94684;-78
2024/04/22 05:14:18;;;;;;;9.35;4.88;;;;;;;13.68;36.08;100720.28;5234691;26;94639;-79
2024/04/22 05:16:44;;;;;;;7.00;4.35;;;;;;;15.30;33.27;100717.59;5232803;27;94859;-79
2024/04/22 05:19:11;;;;;;;7.68;4.45;;;;;;;17.07;31.25;100713.00;5205546;27;94749;-79
2024/04/22 05:21:36;;;;;;;8.98;4.68;;;;;;;18.65;28.32;100709.19;5234341;27;93662;-81
2024/04/22 05:24:09;;;;;;;9.18;5.05;;;;;;;20.19;26.59;100725.94;5224761;26;95331;-77
2024/04/22 05:26:35;;;;;;;8.85;4.22;;;;;;;21.46;25.23;100691.16;5225545;27;94840;-77
2024/04/22 05:29:00;;;;;;;12.30;4.97;;;;;;;22.83;22.74;100715.50;5233306;27;94715;-76
2024/04/22 05:31:26;;;;;;;11.55;4.25;;;;;;;23.76;22.18;100714.31;5205369;27;94651;-77
2024/04/22 05:36:35;;;;;;;5.90;3.10;;;;;;;26.08;20.02;100714.47;5224562;27;94801;-77
2024/04/22 05:39:01;;;;;;;7.43;4.28;;;;;;;26.94;18.95;100694.72;5227360;27;94704;-80
2024/04/22 05:41:27;;;;;;;6.28;4.07;;;;;;;27.58;17.80;100695.63;5176994;27;94637;-80
2024/04/22 05:43:52;;;;;;;5.53;3.67;;;;;;;28.55;17.03;100705.56;5171207;27;98212;-79
2024/04/22 05:46:18;;;;;;;6.25;3.22;;;;;;;29.14;16.68;100708.41;5229081;26;98530;-80
2024/04/22 05:48:43;;;;;;;7.85;4.10;;;;;;;30.11;15.42;100702.34;5221632;27;96980;-75
2024/04/22 05:51:09;;;;;;;12.07;3.53;;;;;;;30.84;14.88;100717.66;5222014;27;94740;-76
2024/04/22 05:53:34;;;;;;;13.88;4.13;;;;;;;31.41;15.08;100702.16;5206227;27;94658;-76
2024/04/22 05:56:00;;;;;;;6.90;3.58;;;;;;;31.40;14.83;100704.03;5220161;27;94669;-76
2024/04/22 05:58:25;;;;;;;7.05;3.10;;;;;;;32.36;13.60;100678.16;5197378;27;94641;-76
2024/04/22 06:00:51;;;;;;;5.13;3.25;;;;;;;33.33;13.09;100707.94;5233911;26;95739;-76
2024/04/22 06:03:16;;;;;;;7.65;3.90;;;;;;;34.05;12.72;100700.75;5231114;26;95181;-79
2024/04/22 06:05:42;;;;;;;5.10;3.13;;;;;;;34.62;12.27;100696.16;5233905;27;95164;-79
2024/04/22 06:08:07;;;;;;;4.32;3.33;;;;;;;35.05;12.43;100702.25;5233413;26;94746;-78
2024/04/22 06:10:33;;;;;;;3.90;2.97;;;;;;;34.26;12.95;100702.59;5233630;27;94649;-79
2024/04/22 06:12:58;;;;;;;5.63;3.42;;;;;;;36.31;11.23;100671.63;5232838;26;95046;-78
2024/04/22 06:15:23;;;;;;;7.95;3.63;;;;;;;38.22;10.47;100698.22;5225972;27;94829;-79
2024/04/22 06:17:49;;;;;;;5.72;4.00;;;;;;;34.47;12.05;100690.78;5232433;27;94753;-78
2024/04/22 06:20:15;;;;;;;4.82;2.90;;;;;;;32.69;12.58;100688.69;5231822;27;95039;-78
2024/04/22 06:22:40;;;;;;;6.15;3.50;;;;;;;29.79;15.04;100711.31;5231336;27;95188;-78
2024/04/22 06:25:07;;;;;;;5.82;3.00;;;;;;;32.28;12.76;100691.81;5232061;27;94757;-78
2024/04/22 06:27:32;;;;;;;6.03;3.10;;;;;;;30.98;13.87;100671.84;5226274;26;94756;-78
2024/04/22 06:29:58;;;;;;;9.23;4.20;;;;;;;30.96;13.46;100687.47;5203846;27;94674;-78
2024/04/22 06:32:23;;;;;;;6.25;3.95;;;;;;;34.40;12.19;100698.06;5231569;27;94605;-78
2024/04/22 06:34:49;;;;;;;6.22;3.20;;;;;;;31.27;14.36;100690.16;5197608;27;96646;-78
2024/04/22 06:37:14;;;;;;;8.68;4.15;;;;;;;31.33;14.08;100703.03;5232094;27;94758;-77
2024/04/22 06:39:40;;;;;;;10.35;5.03;;;;;;;29.95;15.01;100708.59;5234797;27;94657;-78
2024/04/22 06:42:05;;;;;;;7.28;3.75;;;;;;;27.15;16.17;100697.16;5233336;27;94733;-77
2024/04/22 06:44:31;;;;;;;7.32;4.95;;;;;;;23.01;19.91;100716.78;5234187;27;94725;-76
2024/04/22 06:46:58;;;;;;;6.35;4.55;;;;;;;24.73;18.76;100689.03;5232987;27;94626;-76
2024/04/22 06:49:23;;;;;;;13.45;4.55;;;;;;;28.08;16.06;100684.31;5231609;27;94823;-76
2024/04/22 06:51:49;;;;;;;5.40;3.78;;;;;;;27.41;16.69;100697.31;5232776;27;94753;-76
2024/04/22 06:54:15;;;;;;;8.63;4.57;;;;;;;32.31;13.99;100704.19;5233130;27;94694;-78
2024/04/22 06:56:40;;;;;;;10.23;4.22;;;;;;;39.03;10.41;100677.13;5231370;26;94816;-79
2024/04/22 06:59:05;;;;;;;7.57;3.65;;;;;;;39.61;10.16;100672.94;5232963;26;95222;-77
2024/04/22 07:01:31;;;;;;;10.52;4.05;;;;;;;40.72;9.97;100693.22;5229687;26;95421;-77
2024/04/22 07:03:57;;;;;;;5.95;3.42;;;;;;;39.24;9.77;100688.66;5232179;27;94740;-78
2024/04/22 07:06:23;;;;;;;7.90;4.05;;;;;;;34.31;12.79;100694.66;5231054;27;94794;-78
2024/04/22 07:08:48;;;;;;;6.85;4.00;;;;;;;31.45;14.00;100709.78;5179568;27;94943;-77
2024/04/22 07:11:14;;;;;;;5.05;3.63;;;;;;;25.74;17.44;100698.75;5226837;27;94596;-76
2024/04/22 07:13:40;;;;;;;5.53;3.80;;;;;;;27.38;16.77;100703.88;5224379;26;96486;-78
2024/04/22 07:16:05;;;;;;;9.57;4.50;;;;;;;33.25;12.63;100715.34;5224755;26;95160;-78
2024/04/22 07:18:31;;;;;;;10.77;4.50;;;;;;;26.08;17.48;100711.78;5210149;26;96669;-76
2024/04/22 07:20:56;;;;;;;12.23;5.35;;;;;;;22.38;20.43;100724.34;5218220;27;94681;-73
2024/04/22 07:23:22;;;;;;;13.50;4.47;;;;;;;33.17;13.91;100702.72;5222218;27;95359;-77
2024/04/22 07:25:48;;;;;;;6.65;6.03;;;;;;;36.10;11.14;100682.75;5223998;27;94847;-77
2024/04/22 07:28:14;;;;;;;6.70;6.07;;;;;;;25.73;16.87;100709.66;5214757;27;94868;-77
2024/04/22 07:30:40;;;;;;;7.07;4.55;;;;;;;22.35;20.26;100737.97;5217416;26;94636;-74
2024/04/22 07:33:06;;;;;;;8.68;4.13;;;;;;;19.80;22.39;100709.00;5226113;27;94882;-75
2024/04/22 07:35:32;;;;;;;7.00;4.25;;;;;;;18.70;24.60;100738.13;5226950;26;94876;-75
2024/04/22 07:37:58;;;;;;;10.30;5.35;;;;;;;17.90;24.88;100719.00;5227166;26;94657;-75
2024/04/22 07:40:24;;;;;;;5.35;3.83;;;;;;;17.37;25.74;100707.81;5235857;26;93577;-76
2024/04/22 07:42:50;;;;;;;6.43;3.85;;;;;;;17.09;25.79;100742.97;5222072;26;95385;-76
2024/04/22 07:45:19;;;;;;;10.63;4.32;;;;;;;16.38;26.60;100748.47;5213796;27;94699;-75
2024/04/22 07:47:45;;;;;;;10.18;4.10;;;;;;;15.50;27.81;100749.25;5226965;27;94605;-76
2024/04/22 07:50:11;;;;;;;6.88;3.55;;;;;;;14.74;28.62;100745.72;5234847;26;94748;-76
2024/04/22 07:52:40;;;;;;;6.95;3.83;;;;;;;13.82;29.88;100723.22;5231089;26;94706;-79
2024/04/22 07:55:06;;;;;;;5.72;3.25;;;;;;;13.16;29.77;100717.03;5232562;26;94691;-79
2024/04/22 07:57:32;;;;;;;5.13;3.42;;;;;;;13.34;30.30;100763.81;5232254;26;94676;-76
2024/04/22 07:59:58;;;;;;;8.13;4.30;;;;;;;12.98;31.01;100737.91;5233121;26;94777;-78
2024/04/22 08:02:23;;;;;;;8.27;3.75;;;;;;;12.81;30.66;100743.78;5232543;26;97747;-80
2024/04/22 08:04:49;;;;;;;7.60;3.80;;;;;;;12.53;31.08;100735.16;5205762;27;94724;-79
2024/04/22 08:07:18;;;;;;;6.47;3.40;;;;;;;12.30;32.11;100752.59;5226571;26;94643;-78
2024/04/22 08:09:45;;;;;;;6.90;4.55;;;;;;;12.25;32.30;100762.47;5228217;26;94607;-78
2024/04/22 08:12:12;;;;;;;7.25;4.00;;;;;;;12.24;32.89;100777.34;5223997;26;94987;-79
2024/04/22 08:14:37;;;;;;;8.18;4.50;;;;;;;12.10;32.93;100752.41;5236114;26;95478;-79
2024/04/22 08:17:03;;;;;;;6.82;4.03;;;;;;;12.17;32.55;100746.06;5234262;27;94384;-79
2024/04/22 08:19:28;;;;;;;6.00;4.10;;;;;;;12.34;32.57;100758.66;5233561;26;94667;-79
2024/04/22 08:21:54;;;;;;;7.82;4.00;;;;;;;14.16;30.87;100767.53;5231887;26;94737;-79
2024/04/22 08:24:21;;;;;;;8.80;3.58;;;;;;;16.51;27.16;100746.88;5222315;26;94713;-80
2024/04/22 08:26:47;;;;;;;5.85;2.83;;;;;;;15.13;28.03;100763.34;5195847;26;94580;-78
2024/04/22 08:29:15;;;;;;;7.75;3.20;;;;;;;14.10;28.40;100772.22;5229962;26;94829;-79
2024/04/22 08:31:42;;;;;;;5.55;2.60;;;;;;;13.16;29.77;100786.44;5231679;26;94773;-79
2024/04/22 08:34:09;;;;;;;9.98;3.50;;;;;;;12.38;31.28;100758.47;5233908;26;94749;-78
2024/04/22 08:36:35;;;;;;;8.18;3.65;;;;;;;11.99;31.95;100784.38;5199596;27;94519;-80
2024/04/22 08:39:00;;;;;;;8.82;4.00;;;;;;;11.54;32.94;100755.94;5226959;26;94500;-81
2024/04/22 08:41:26;;;;;;;8.27;3.65;;;;;;;11.25;33.46;100736.66;5230495;26;94682;-80
2024/04/22 08:43:51;;;;;;;10.55;4.13;;;;;;;11.36;33.74;100795.94;5197833;27;94652;-79
2024/04/22 08:46:17;;;;;;;4.55;3.45;;;;;;;10.95;33.85;100740.22;5226316;26;94749;-79
2024/04/22 08:48:43;;;;;;;7.45;3.63;;;;;;;11.10;33.50;100785.28;5229656;26;94665;-80
2024/04/22 08:51:09;;;;;;;5.97;3.50;;;;;;;10.88;33.88;100761.41;5228322;27;95029;-81
2024/04/22 08:53:34;;;;;;;4.65;2.88;;;;;;;11.20;33.71;100793.78;5193925;27;94743;-78
2024/04/22 08:56:00;;;;;;;6.82;3.97;;;;;;;11.27;33.97;100791.81;5227478;26;97131;-82
2024/04/22 08:58:25;;;;;;;6.72;3.35;;;;;;;11.60;33.45;100799.59;5191960;27;97590;-82
2024/04/22 09:00:51;;;;;;;14.82;4.75;;;;;;;11.79;33.35;100751.63;5219266;26;94820;-81
2024/04/22 09:03:16;;;;;;;5.32;2.70;;;;;;;12.36;32.11;100767.34;5224117;27;94716;-81
2024/04/22 09:05:42;;;;;;;5.57;3.20;;;;;;;13.04;31.79;100771.06;5228331;27;94687;-81
2024/04/22 09:08:09;;;;;;;6.07;2.75;;;;;;;13.18;31.19;100728.34;5195724;27;97787;-81
2024/04/22 09:10:38;;;;;;;3.95;2.75;;;;;;;13.46;30.34;100780.94;5229495;27;94744;-81
2024/04/22 09:13:03;;;;;;;11.95;3.58;;;;;;;13.01;30.27;100779.09;5222552;27;94557;-81
2024/04/22 09:15:30;;;;;;;4.75;2.00;;;;;;;12.51;30.86;100761.56;5225780;27;94753;-80
2024/04/22 09:17:56;;;;;;;3.47;2.08;;;;;;;12.20;31.23;100746.81;5223595;27;94549;-80
2024/04/22 09:20:40;;;;;;;2.85;1.95;;;;;;;11.81;31.20;100743.72;5196012;27;97848;-81
2024/04/22 09:23:08;;;;;;;4.13;2.20;;;;;;;11.76;32.14;100785.06;5228068;27;94611;-81
2024/04/22 09:25:34;;;;;;;7.60;2.35;;;;;;;11.74;31.81;100773.72;5192579;27;94811;-81
2024/04/22 09:28:00;;;;;;;9.65;2.35;;;;;;;11.70;32.23;100774.75;5192820;27;97978;-80
2024/04/22 09:30:29;;;;;;;5.00;2.28;;;;;;;11.53;32.46;100746.34;5224492;26;95067;-81
2024/04/22 09:32:59;;;;;;;6.70;2.33;;;;;;;11.48;33.02;100775.41;5195927;27;94750;-81
2024/04/22 09:35:24;;;;;;;4.45;2.10;;;;;;;11.49;32.30;100786.75;5169653;27;94460;-81
2024/04/22 09:37:50;;;;;;;4.63;2.00;;;;;;;11.55;32.39;100797.13;5222423;27;97127;-81
2024/04/22 09:40:18;;;;;;;4.50;2.17;;;;;;;11.48;31.71;100791.16;5193408;27;97537;-81
2024/04/22 09:42:45;;;;;;;3.47;2.10;;;;;;;11.33;32.06;100789.00;5174406;27;94605;-81
2024/04/22 09:45:12;;;;;;;6.18;1.98;;;;;;;11.53;31.93;100785.78;5200999;27;94276;-80
2024/04/22 09:47:39;;;;;;;4.13;2.03;;;;;;;11.72;31.53;100776.44;5228368;26;94704;-81
2024/04/22 09:50:08;;;;;;;5.20;2.15;;;;;;;11.76;31.92;100767.50;5195186;27;95205;-80
2024/04/22 09:52:35;;;;;;;5.72;1.88;;;;;;;11.85;31.39;100773.41;5196061;27;94605;-80
2024/04/22 09:55:01;;;;;;;3.33;2.15;;;;;;;11.89;31.35;100783.78;5201251;27;94601;-81
2024/04/22 09:57:31;;;;;;;4.15;2.20;;;;;;;11.87;31.13;100779.47;5225219;27;94818;-80
2024/04/22 09:59:59;;;;;;;3.78;2.22;;;;;;;11.97;31.21;100797.56;5222897;26;94856;-80
2024/04/22 10:02:26;;;;;;;3.65;2.00;;;;;;;11.49;31.97;100758.72;5226169;26;94601;-80
2024/04/22 10:04:51;;;;;;;3.30;1.98;;;;;;;11.78;31.27;100759.59;5227817;27;94564;-80
2024/04/22 10:07:18;;;;;;;3.63;1.73;;;;;;;12.12;31.56;100785.66;5225563;27;95306;-79
2024/04/22 10:09:48;;;;;;;8.73;2.13;;;;;;;11.91;31.48;100747.78;5229409;26;94762;-80
2024/04/22 10:12:14;;;;;;;8.55;3.28;;;;;;;12.18;31.46;100771.44;5196489;27;97870;-80
2024/04/22 10:14:39;;;;;;;4.75;1.85;;;;;;;12.36;31.01;100780.50;5228638;27;95719;-82
2024/04/22 10:17:06;;;;;;;3.15;1.58;;;;;;;12.54;31.05;100785.16;5226508;27;94463;-81
2024/04/22 10:19:33;;;;;;;3.00;1.50;;;;;;;12.59;30.48;100777.06;5168626;27;98642;-80
2024/04/22 10:22:00;;;;;;;4.47;1.85;;;;;;;12.53;31.16;100753.59;5225666;27;95012;-83
2024/04/22 10:24:27;;;;;;;2.78;2.00;;;;;;;12.24;31.75;100784.41;5222817;27;94673;-80
2024/04/22 10:26:55;;;;;;;5.78;1.88;;;;;;;12.45;32.01;100796.00;5225559;27;98118;-81
2024/04/22 10:29:21;;;;;;;4.95;2.38;;;;;;;12.20;31.66;100745.94;5198674;27;95227;-81
2024/04/22 10:31:46;;;;;;;6.93;2.40;;;;;;;12.19;31.85;100774.03;5224934;27;95227;-81
2024/04/22 10:34:12;;;;;;;3.55;2.25;;;;;;;12.26;31.08;100750.16;5222574;27;94675;-81
2024/04/22 10:36:37;;;;;;;3.53;1.77;;;;;;;12.38;31.52;100774.28;5224025;27;94665;-81
2024/04/22 10:39:04;;;;;;;5.05;1.98;;;;;;;12.29;31.88;100756.16;5229988;27;95286;-81
2024/04/22 10:41:29;;;;;;;3.53;1.88;;;;;;;12.19;32.44;100779.31;5225407;27;94804;-81
2024/04/22 10:43:55;;;;;;;3.75;1.70;;;;;;;12.30;31.68;100778.06;5200111;27;94635;-81
2024/04/22 10:46:20;;;;;;;4.93;2.15;;;;;;;12.24;31.71;100765.97;5226231;27;95944;-81
2024/04/22 10:48:46;;;;;;;4.88;2.35;;;;;;;12.18;31.96;100727.56;5197989;27;94696;-76
2024/04/22 10:51:11;;;;;;;4.25;1.92;;;;;;;12.05;31.68;100768.38;5223154;27;94681;-75
2024/04/22 10:53:37;;;;;;;4.65;2.10;;;;;;;12.04;32.05;100736.84;5225772;27;94663;-73
2024/04/22 10:56:03;;;;;;;4.78;1.95;;;;;;;12.34;32.05;100764.75;5226213;27;97271;-73
2024/04/22 10:58:28;;;;;;;8.32;2.20;;;;;;;12.29;31.61;100743.00;5220037;27;94588;-73
2024/04/22 11:00:54;;;;;;;6.03;1.85;;;;;;;12.26;32.10;100769.44;5227217;27;94722;-75
2024/04/22 11:03:20;;;;;;;4.47;1.90;;;;;;;12.25;31.75;100775.63;5227614;27;96929;-76
2024/04/22 11:05:47;;;;;;;6.07;2.42;;;;;;;12.27;31.61;100779.03;5229862;27;94635;-74
2024/04/22 11:08:14;;;;;;;3.20;1.65;;;;;;;12.59;30.75;100769.16;5229922;27;94592;-73
2024/04/22 11:10:40;;;;;;;4.10;1.83;;;;;;;12.36;31.62;100770.84;5229998;27;94707;-74
2024/04/22 11:13:06;;;;;;;5.70;1.98;;;;;;;11.98;32.22;100730.00;5232541;26;95198;-74
2024/04/22 11:15:31;;;;;;;4.35;1.88;;;;;;;11.76;32.07;100759.63;5233913;26;94699;-76
2024/04/22 11:18:07;;;;;;;4.03;1.50;;;;;;;12.01;31.69;100777.25;5233090;26;94706;-80
2024/04/22 11:20:33;;;;;;;2.85;1.63;;;;;;;11.58;31.98;100739.19;5231393;27;94646;-81
2024/04/22 11:22:58;;;;;;;1.75;1.40;;;;;;;11.44;32.13;100741.38;5224905;26;94721;-81
2024/04/22 11:25:24;;;;;;;3.55;1.90;;;;;;;11.24;32.70;100745.47;5211456;26;93679;-82
2024/04/22 11:27:49;;;;;;;2.85;1.67;;;;;;;11.40;32.54;100753.72;5159808;27;97987;-81